KHTO 050515Z AUTO 33022G29KT 10SM CLR M03/M15 A2976 RMK AO2 T10341146

KHTO 050415Z AUTO 33021G27KT 10SM CLR M03/M13 A2977 RMK AO2 T10261135

KHTO 050315Z AUTO 31018G26KT 10SM CLR M02/M14 A2976 RMK AO2 T10171144

KHTO 050215Z AUTO 32014G20KT 280V340 10SM CLR M01/M16 A2977 RMK AO2 T10091156

KHTO 050115Z AUTO 32011G21KT 10SM CLR 00/M14 A2976 RMK AO2 T00001145

KHTO 050015Z AUTO 32012G22KT 290V360 10SM CLR 00/M14 A2977 RMK AO2 T00021136

KHTO 042315Z AUTO 32013G20KT 10SM CLR 01/M11 A2975 RMK AO2 T00101114

KHTO 042215Z AUTO 32011G21KT 10SM CLR 02/M10 A2973 RMK AO2 T00221099